Appleton, New York
Current Conditions -  °F | °C
As of 2:53 AM on Saturday 01 Nov 2014 (Local Time) from KIAG Reporting Station
Overcast Overcast  
Wind Chill: 36°   Ceiling: 1000
Heat Index: 41°   Visibility: 7mi
Dew Point: 38°   Wind: 8mph
Humidity: 89%   Direction: 40°NE
Pressure: 30"   Gusts: NA
Location:  43.33°N, 78.65°W
Report Text: KIAG 010653Z AUTO 04007KT 7SM BKN010 BKN021 OVC033 05/03 A3000 RMK AO2 RAE42 CIG 006V015 SLP168 P0000 T00500033 $
Loading
Personal Weather Stations






























Interactive Weather Map
Tropical Storm Tracking
New forecast layout! Learn more

10-Day Weather Forecast

Advertisements
Track Severe Weather on mobile